createdAt,value
2022-07-25T00:00:20.673Z,9.95
2022-07-25T00:03:23.038Z,10.95
2022-07-25T00:06:25.762Z,9.87
2022-07-25T00:09:28.228Z,9.98
2022-07-25T00:12:30.728Z,8.90
2022-07-25T00:15:33.224Z,8.55
2022-07-25T00:18:35.820Z,11.10
2022-07-25T00:21:38.227Z,10.23
2022-07-25T00:24:40.732Z,8.45
2022-07-25T00:27:43.925Z,9.95
2022-07-25T00:30:46.651Z,8.52
2022-07-25T00:33:49.338Z,10.38
2022-07-25T00:36:52.664Z,9.43
2022-07-25T00:39:55.158Z,11.55
2022-07-25T00:42:57.802Z,9.27
2022-07-25T00:46:00.543Z,14.25
2022-07-25T00:49:03.245Z,8.82
2022-07-25T00:52:06.071Z,9.20
2022-07-25T00:55:09.194Z,10.18
2022-07-25T00:58:11.814Z,9.20
2022-07-25T01:01:14.711Z,13.75
2022-07-25T01:04:17.482Z,10.40
2022-07-25T01:07:19.968Z,10.63
2022-07-25T01:10:22.491Z,12.98
2022-07-25T01:13:25.067Z,10.57
2022-07-25T01:16:27.470Z,11.45
2022-07-25T01:19:29.912Z,12.65
2022-07-25T01:22:32.339Z,14.23
2022-07-25T01:25:34.897Z,9.85
2022-07-25T01:28:37.332Z,14.90
2022-07-25T01:31:39.808Z,10.35
2022-07-25T01:34:42.269Z,13.95
2022-07-25T01:37:45.461Z,10.67
2022-07-25T01:40:48.617Z,11.15
2022-07-25T01:43:51.179Z,10.77
2022-07-25T01:46:53.663Z,9.15
2022-07-25T01:49:56.668Z,14.10
2022-07-25T01:52:59.150Z,11.23
2022-07-25T01:56:02.767Z,10.95
2022-07-25T01:59:05.926Z,12.57
2022-07-25T02:02:09.260Z,11.35
2022-07-25T02:05:13.573Z,10.23
2022-07-25T02:08:16.350Z,9.73
2022-07-25T02:11:19.825Z,10.10
2022-07-25T02:14:22.955Z,11.18
2022-07-25T02:17:25.695Z,12.25
2022-07-25T02:20:30.299Z,12.57
2022-07-25T02:23:33.485Z,11.50
2022-07-25T02:26:36.042Z,14.32
2022-07-25T02:29:38.425Z,11.63
2022-07-25T02:32:40.976Z,11.45
2022-07-25T02:35:43.396Z,10.77
2022-07-25T02:38:46.068Z,13.77
2022-07-25T02:41:48.556Z,13.02
2022-07-25T02:44:51.012Z,10.52
2022-07-25T02:47:53.484Z,14.52
2022-07-25T02:50:56.084Z,11.57
2022-07-25T02:53:59.153Z,12.37
2022-07-25T02:57:01.791Z,12.38
2022-07-25T03:00:07.128Z,10.32
2022-07-25T03:03:09.780Z,11.13
2022-07-25T03:06:13.299Z,11.88
2022-07-25T03:09:15.698Z,11.63
2022-07-25T03:12:18.194Z,12.95
2022-07-25T03:15:20.737Z,11.70
2022-07-25T03:18:23.187Z,12.82
2022-07-25T03:21:25.792Z,13.38
2022-07-25T03:24:28.283Z,11.00
2022-07-25T03:27:31.069Z,11.30
2022-07-25T03:30:33.469Z,9.73
2022-07-25T03:33:35.917Z,12.85
2022-07-25T03:36:38.591Z,11.93
2022-07-25T03:39:41.098Z,12.30
2022-07-25T03:42:43.848Z,12.70
2022-07-25T03:45:46.392Z,12.13
2022-07-25T03:48:48.965Z,13.93
2022-07-25T03:51:51.509Z,14.70
2022-07-25T03:54:53.858Z,12.10
2022-07-25T03:57:56.258Z,11.55
2022-07-25T04:00:58.766Z,13.00
2022-07-25T04:04:02.235Z,11.77
2022-07-25T04:07:04.649Z,13.38
2022-07-25T04:10:08.368Z,14.13
2022-07-25T04:13:10.979Z,11.57
2022-07-25T04:16:17.886Z,9.68
2022-07-25T04:19:26.228Z,12.25
2022-07-25T04:22:31.372Z,17.77
2022-07-25T04:25:33.741Z,22.10
2022-07-25T04:28:36.343Z,13.32
2022-07-25T04:31:39.295Z,12.48
2022-07-25T04:34:43.724Z,13.00
2022-07-25T04:37:46.126Z,18.17
2022-07-25T04:40:49.088Z,10.50
2022-07-25T04:43:51.652Z,11.15
2022-07-25T04:46:54.096Z,12.13
2022-07-25T04:49:56.651Z,11.32
2022-07-25T04:52:59.667Z,11.70
2022-07-25T04:56:02.133Z,10.50
2022-07-25T04:59:06.810Z,12.38
2022-07-25T05:02:09.621Z,10.90
2022-07-25T05:05:21.686Z,9.93
2022-07-25T05:08:24.933Z,15.10
2022-07-25T05:11:27.496Z,9.77
2022-07-25T05:14:29.927Z,8.35
2022-07-25T05:17:32.530Z,8.82
2022-07-25T05:20:35.033Z,12.90
2022-07-25T05:23:37.656Z,8.88
2022-07-25T05:26:40.148Z,9.23
2022-07-25T05:29:42.781Z,9.82
2022-07-25T05:32:45.255Z,9.00
2022-07-25T05:35:48.158Z,9.90
2022-07-25T05:38:50.740Z,10.75
2022-07-25T05:41:53.559Z,9.47
2022-07-25T05:44:56.033Z,10.05
2022-07-25T05:47:58.606Z,8.55
2022-07-25T05:51:01.021Z,11.15
2022-07-25T05:54:04.195Z,9.35
2022-07-25T05:57:06.904Z,9.13
2022-07-25T06:00:09.945Z,9.07
2022-07-25T06:03:12.413Z,11.25
2022-07-25T06:06:14.965Z,11.68
2022-07-25T06:09:21.759Z,7.93
2022-07-25T06:12:24.433Z,11.97
2022-07-25T06:15:27.531Z,9.70
2022-07-25T06:18:30.393Z,11.07
2022-07-25T06:21:32.930Z,11.27
2022-07-25T06:24:35.832Z,9.60
2022-07-25T06:27:38.607Z,9.80
2022-07-25T06:30:42.626Z,8.68
2022-07-25T06:33:45.212Z,9.43
2022-07-25T06:36:47.707Z,8.95
2022-07-25T06:39:50.141Z,8.68
2022-07-25T06:42:52.694Z,9.20
2022-07-25T06:45:55.117Z,8.95
2022-07-25T06:48:57.936Z,8.25
2022-07-25T06:52:00.348Z,9.23
2022-07-25T06:55:04.927Z,9.00
2022-07-25T06:58:07.479Z,11.23
2022-07-25T07:01:10.002Z,7.03
2022-07-25T07:04:12.441Z,8.00
2022-07-25T07:07:16.896Z,8.63
2022-07-25T07:10:20.459Z,10.02
2022-07-25T07:13:24.797Z,8.03
2022-07-25T07:16:27.359Z,9.90
2022-07-25T07:19:30.063Z,10.90
2022-07-25T07:22:32.835Z,8.70
2022-07-25T07:25:36.034Z,9.98
2022-07-25T07:28:40.034Z,8.43
2022-07-25T07:31:42.602Z,8.48
2022-07-25T07:34:45.365Z,9.05
2022-07-25T07:37:47.942Z,8.60
2022-07-25T07:40:50.478Z,7.80
2022-07-25T07:43:52.979Z,10.10
2022-07-25T07:46:55.690Z,8.05
2022-07-25T07:49:58.184Z,7.32
2022-07-25T07:53:02.716Z,10.27
2022-07-25T07:56:06.226Z,8.63
2022-07-25T07:59:08.917Z,8.13
2022-07-25T08:02:12.034Z,12.10
2022-07-25T08:05:21.539Z,9.02
2022-07-25T08:08:27.861Z,10.05
2022-07-25T08:11:33.447Z,8.13
2022-07-25T08:14:35.889Z,9.23
2022-07-25T08:17:38.320Z,6.97
2022-07-25T08:20:41.513Z,7.97
2022-07-25T08:23:47.132Z,9.10
2022-07-25T08:26:49.842Z,9.32
2022-07-25T08:29:52.974Z,10.33
2022-07-25T08:32:59.871Z,8.77
2022-07-25T08:36:02.380Z,7.25
2022-07-25T08:39:04.860Z,7.22
2022-07-25T08:42:11.103Z,9.35
2022-07-25T08:45:18.287Z,7.77
2022-07-25T08:48:24.984Z,8.15
2022-07-25T08:51:28.294Z,7.20
2022-07-25T08:54:31.821Z,8.77
2022-07-25T08:57:36.171Z,11.10
2022-07-25T09:00:39.384Z,6.67
2022-07-25T09:03:43.327Z,7.68
2022-07-25T09:06:50.574Z,8.98
2022-07-25T09:09:53.087Z,7.25
2022-07-25T09:12:58.052Z,8.70
2022-07-25T09:16:00.666Z,9.73
2022-07-25T09:19:14.013Z,9.02
2022-07-25T09:22:16.446Z,8.52
2022-07-25T09:25:24.385Z,9.60
2022-07-25T09:28:26.780Z,8.63
2022-07-25T09:31:32.828Z,12.00
2022-07-25T09:34:43.882Z,7.97
2022-07-25T09:37:46.296Z,10.20
2022-07-25T09:41:01.377Z,8.93
2022-07-25T09:44:05.289Z,9.05
2022-07-25T09:47:12.555Z,8.30
2022-07-25T09:50:18.509Z,10.00
2022-07-25T09:53:21.179Z,10.75
2022-07-25T09:56:23.715Z,9.15
2022-07-25T09:59:26.178Z,8.10
2022-07-25T10:02:40.759Z,9.00
2022-07-25T10:05:56.680Z,8.00
2022-07-25T10:08:59.626Z,9.57
2022-07-25T10:12:10.207Z,9.18
2022-07-25T10:15:13.872Z,11.43
2022-07-25T10:18:18.765Z,10.60
2022-07-25T10:21:26.978Z,12.80
2022-07-25T10:24:35.075Z,9.32
2022-07-25T10:27:43.893Z,9.95
2022-07-25T10:30:47.252Z,9.50
2022-07-25T10:33:59.574Z,10.33
2022-07-25T10:37:16.060Z,10.38
2022-07-25T10:40:30.201Z,8.95
2022-07-25T10:43:37.984Z,9.98
2022-07-25T10:46:44.063Z,9.23
2022-07-25T10:50:14.471Z,10.80
2022-07-25T10:53:11.920Z,11.27
2022-07-25T10:56:15.409Z,12.38
2022-07-25T10:59:34.452Z,10.18
2022-07-25T11:02:37.130Z,9.85
2022-07-25T11:05:48.988Z,9.33
2022-07-25T11:08:51.545Z,9.82
2022-07-25T11:11:59.753Z,10.32
2022-07-25T11:15:05.607Z,11.50
2022-07-25T11:18:08.352Z,10.00
2022-07-25T11:21:10.780Z,8.73
2022-07-25T11:24:13.707Z,11.00
2022-07-25T11:27:27.410Z,9.35
2022-07-25T11:30:31.171Z,10.55
2022-07-25T11:33:38.684Z,9.80
2022-07-25T11:36:43.249Z,9.40
2022-07-25T11:39:47.577Z,10.98
2022-07-25T11:42:59.356Z,8.88
2022-07-25T11:46:08.063Z,9.43
2022-07-25T11:49:11.434Z,9.70
2022-07-25T11:52:25.300Z,8.97
2022-07-25T11:55:30.484Z,9.65
2022-07-25T11:58:32.883Z,10.00
2022-07-25T12:01:40.543Z,8.77
2022-07-25T12:04:53.772Z,9.20
2022-07-25T12:07:56.299Z,10.90
2022-07-25T12:10:58.763Z,11.90
2022-07-25T12:14:05.539Z,10.35
2022-07-25T12:17:07.958Z,8.57
2022-07-25T12:20:25.134Z,9.63
2022-07-25T12:23:27.521Z,10.23
2022-07-25T12:26:30.083Z,10.20
2022-07-25T12:29:32.570Z,9.18
2022-07-25T12:32:36.281Z,10.30
2022-07-25T12:35:41.458Z,12.95
2022-07-25T12:38:43.989Z,9.93
2022-07-25T12:41:46.788Z,10.45
2022-07-25T12:44:49.309Z,9.88
2022-07-25T12:47:51.870Z,9.15
2022-07-25T12:50:55.091Z,13.07
2022-07-25T12:53:57.532Z,8.97
2022-07-25T12:57:00.113Z,10.68
2022-07-25T13:00:08.515Z,8.50
2022-07-25T13:03:11.198Z,10.15
2022-07-25T13:06:13.664Z,8.32
2022-07-25T13:09:16.189Z,10.67
2022-07-25T13:12:18.673Z,9.65
2022-07-25T13:15:23.334Z,9.23
2022-07-25T13:18:25.910Z,10.85
2022-07-25T13:21:29.568Z,11.05
2022-07-25T13:24:34.462Z,8.40
2022-07-25T13:27:38.563Z,8.80
2022-07-25T13:30:41.198Z,8.65
2022-07-25T13:33:44.536Z,10.40
2022-07-25T13:36:47.895Z,9.80
2022-07-25T13:39:50.400Z,8.27
2022-07-25T13:42:53.025Z,8.85
2022-07-25T13:45:55.527Z,10.40
2022-07-25T13:48:58.449Z,8.15
2022-07-25T13:52:01.620Z,13.93
2022-07-25T13:55:04.988Z,9.80
2022-07-25T13:58:08.078Z,10.70
2022-07-25T14:01:12.619Z,9.52
2022-07-25T14:04:15.039Z,10.38
2022-07-25T14:07:17.587Z,9.82
2022-07-25T14:10:20.180Z,10.10
2022-07-25T14:13:22.609Z,10.10
2022-07-25T14:16:25.096Z,11.93
2022-07-25T14:19:27.571Z,10.48
2022-07-25T14:22:29.930Z,10.05
2022-07-25T14:25:32.419Z,8.70
2022-07-25T14:28:34.935Z,10.27
2022-07-25T14:31:39.983Z,11.90
2022-07-25T14:34:42.415Z,9.73
2022-07-25T14:37:44.994Z,8.75
2022-07-25T14:40:47.987Z,9.93
2022-07-25T14:43:50.477Z,8.57
2022-07-25T14:46:53.641Z,8.77
2022-07-25T14:49:56.105Z,11.43
2022-07-25T14:52:58.546Z,11.43
2022-07-25T14:56:02.794Z,9.47
2022-07-25T14:59:06.414Z,9.77
2022-07-25T15:02:09.129Z,10.85
2022-07-25T15:05:11.750Z,11.15
2022-07-25T15:08:14.389Z,8.88
2022-07-25T15:11:16.967Z,11.77
2022-07-25T15:14:19.422Z,10.50
2022-07-25T15:17:21.960Z,9.73
2022-07-25T15:20:24.340Z,12.13
2022-07-25T15:23:30.516Z,12.23
2022-07-25T15:26:33.729Z,9.03
2022-07-25T15:29:36.100Z,10.07
2022-07-25T15:32:40.104Z,9.05
2022-07-25T15:35:44.368Z,10.40
2022-07-25T15:38:46.870Z,10.63
2022-07-25T15:41:49.357Z,10.40
2022-07-25T15:45:04.076Z,11.02
2022-07-25T15:48:16.324Z,10.35
2022-07-25T15:51:19.378Z,10.90
2022-07-25T15:54:24.035Z,9.27
2022-07-25T15:57:30.157Z,10.43
2022-07-25T16:00:32.866Z,10.38
2022-07-25T16:03:35.478Z,12.00
2022-07-25T16:06:37.998Z,10.05
2022-07-25T16:09:40.668Z,9.95
2022-07-25T16:12:43.195Z,7.43
2022-07-25T16:15:45.826Z,10.02
2022-07-25T16:18:48.700Z,9.02
2022-07-25T16:21:51.124Z,8.40
2022-07-25T16:24:53.584Z,10.15
2022-07-25T16:27:56.594Z,8.73
2022-07-25T16:30:59.054Z,9.02
2022-07-25T16:34:01.519Z,8.10
2022-07-25T16:37:04.384Z,9.50
2022-07-25T16:40:08.619Z,12.20
2022-07-25T16:43:11.091Z,8.87
2022-07-25T16:46:13.559Z,11.70
2022-07-25T16:49:16.346Z,8.25
2022-07-25T16:52:18.952Z,9.10
2022-07-25T16:55:21.330Z,9.88
2022-07-25T16:58:23.812Z,12.57
2022-07-25T17:01:26.950Z,10.88
2022-07-25T17:04:29.541Z,10.48
2022-07-25T17:07:32.385Z,9.65
2022-07-25T17:10:35.269Z,9.73
2022-07-25T17:13:37.640Z,10.77
2022-07-25T17:16:41.392Z,11.57
2022-07-25T17:19:44.086Z,20.60
2022-07-25T17:22:46.498Z,14.18
2022-07-25T17:25:50.709Z,13.32
2022-07-25T17:28:53.809Z,25.87
2022-07-25T17:31:56.351Z,19.52
2022-07-25T17:34:58.888Z,11.02
2022-07-25T17:38:01.289Z,18.02
2022-07-25T17:41:04.739Z,12.70
2022-07-25T17:44:11.618Z,9.87
2022-07-25T17:47:14.727Z,11.18
2022-07-25T17:50:17.431Z,9.55
2022-07-25T17:53:19.887Z,11.93
2022-07-25T17:56:22.321Z,13.38
2022-07-25T17:59:24.912Z,11.80
2022-07-25T18:02:27.342Z,11.15
2022-07-25T18:05:29.953Z,12.43
2022-07-25T18:08:35.048Z,10.90
2022-07-25T18:11:37.512Z,11.32
2022-07-25T18:14:39.909Z,15.10
2022-07-25T18:17:44.230Z,17.85
2022-07-25T18:20:47.031Z,12.65
2022-07-25T18:23:49.490Z,12.20
2022-07-25T18:26:51.948Z,15.63
2022-07-25T18:29:54.448Z,14.50
2022-07-25T18:32:57.109Z,11.38
2022-07-25T18:36:02.875Z,14.27
2022-07-25T18:39:08.269Z,14.13
2022-07-25T18:42:10.611Z,13.43
2022-07-25T18:45:13.239Z,11.90
2022-07-25T18:48:16.260Z,15.43
2022-07-25T18:51:18.788Z,13.88
2022-07-25T18:54:21.286Z,15.75
2022-07-25T18:57:23.699Z,10.70
2022-07-25T19:00:26.573Z,11.73
2022-07-25T19:03:30.092Z,14.73
2022-07-25T19:06:32.752Z,11.68
2022-07-25T19:09:35.313Z,15.45
2022-07-25T19:12:37.835Z,13.68
2022-07-25T19:15:40.275Z,19.77
2022-07-25T19:18:43.057Z,13.88
2022-07-25T19:21:45.969Z,12.18
2022-07-25T19:24:48.615Z,13.57
2022-07-25T19:27:51.293Z,10.77
2022-07-25T19:30:53.850Z,13.37
2022-07-25T19:33:56.312Z,16.08
2022-07-25T19:36:58.900Z,17.92
2022-07-25T19:40:01.358Z,14.70
2022-07-25T19:43:03.750Z,13.52
2022-07-25T19:46:06.485Z,16.97
2022-07-25T19:49:09.314Z,12.73
2022-07-25T19:52:11.806Z,12.65
2022-07-25T19:55:14.658Z,15.55
2022-07-25T19:58:17.055Z,11.52
2022-07-25T20:01:19.523Z,16.70
2022-07-25T20:04:22.425Z,13.95
2022-07-25T20:07:25.156Z,15.60
2022-07-25T20:10:28.000Z,14.80
2022-07-25T20:13:30.527Z,17.02
2022-07-25T20:16:36.104Z,19.80
2022-07-25T20:19:38.822Z,15.63
2022-07-25T20:22:43.077Z,12.45
2022-07-25T20:25:46.365Z,19.27
2022-07-25T20:28:48.885Z,20.13
2022-07-25T20:31:52.733Z,15.33
2022-07-25T20:34:56.072Z,14.90
2022-07-25T20:37:58.489Z,11.63
2022-07-25T20:41:01.165Z,14.52
2022-07-25T20:44:04.990Z,13.65
2022-07-25T20:47:07.557Z,13.87
2022-07-25T20:50:10.443Z,15.35
2022-07-25T20:53:12.862Z,12.77
2022-07-25T20:56:15.331Z,13.88
2022-07-25T20:59:18.090Z,13.13
2022-07-25T21:02:20.761Z,17.83
2022-07-25T21:05:23.645Z,15.52
2022-07-25T21:08:26.017Z,17.05
2022-07-25T21:11:28.437Z,21.70
2022-07-25T21:14:30.845Z,22.27
2022-07-25T21:17:34.252Z,25.63
2022-07-25T21:20:36.826Z,17.58
2022-07-25T21:23:39.568Z,17.85
2022-07-25T21:26:42.335Z,22.42
2022-07-25T21:29:44.982Z,20.88
2022-07-25T21:32:47.455Z,15.03
2022-07-25T21:35:53.286Z,14.77
2022-07-25T21:38:56.229Z,14.48
2022-07-25T21:41:59.129Z,14.52
2022-07-25T21:45:04.167Z,11.73
2022-07-25T21:48:07.950Z,13.60
2022-07-25T21:51:18.614Z,17.23
2022-07-25T21:54:25.304Z,14.10
2022-07-25T21:57:28.610Z,19.70
2022-07-25T22:00:33.441Z,14.98
2022-07-25T22:03:36.174Z,14.13
2022-07-25T22:06:38.601Z,16.60
2022-07-25T22:09:41.289Z,19.38
2022-07-25T22:12:44.104Z,13.77
2022-07-25T22:15:46.629Z,13.05
2022-07-25T22:18:49.068Z,19.03
2022-07-25T22:21:51.859Z,14.95
2022-07-25T22:24:54.262Z,12.68
2022-07-25T22:27:56.765Z,15.85
2022-07-25T22:30:59.279Z,14.25
2022-07-25T22:34:01.668Z,12.07
2022-07-25T22:37:04.053Z,15.20
2022-07-25T22:40:06.871Z,14.70
2022-07-25T22:43:09.485Z,14.43
2022-07-25T22:46:12.002Z,15.70
2022-07-25T22:49:18.027Z,13.60
2022-07-25T22:52:20.462Z,15.27
2022-07-25T22:55:22.876Z,16.88
2022-07-25T22:58:27.071Z,15.48
2022-07-25T23:01:29.569Z,17.75
2022-07-25T23:04:32.018Z,15.00
2022-07-25T23:07:35.179Z,14.55
2022-07-25T23:10:37.575Z,12.60
2022-07-25T23:13:40.058Z,15.00
2022-07-25T23:16:42.949Z,11.48
2022-07-25T23:19:51.626Z,14.93
2022-07-25T23:22:54.202Z,14.55
2022-07-25T23:25:59.396Z,15.15
2022-07-25T23:29:01.827Z,14.25
2022-07-25T23:32:05.138Z,11.43
2022-07-25T23:35:08.239Z,10.30
2022-07-25T23:38:10.910Z,14.43
2022-07-25T23:41:13.580Z,16.02
2022-07-25T23:44:16.142Z,10.52
2022-07-25T23:47:23.902Z,12.93
2022-07-25T23:50:29.297Z,14.53
2022-07-25T23:53:31.701Z,14.70
2022-07-25T23:56:34.230Z,14.55
2022-07-25T23:59:36.686Z,14.38
